Time;durP1;ratioP1;P1;durP2;ratioP2;P2;SDS_P1;SDS_P2;PMS_P1;PMS_P2;Temp;Humidity;BMP_temperature;BMP_pressure;BME280_temperature;BME280_humidity;BME280_pressure;Samples;Min_cycle;Max_cycle;Signal;HPM_P1;HPM_P2
2024/01/04 00:00:10;;;;;;;4.10;1.40;;;;;;;7.60;100.00;99483.38;5130560;27;20030;-36
2024/01/04 00:02:36;;;;;;;2.13;0.77;;;;;;;7.54;100.00;99477.09;5131704;27;20020;-36
2024/01/04 00:05:03;;;;;;;2.15;0.68;;;;;;;7.49;100.00;99488.59;5130728;27;20529;-35
2024/01/04 00:07:28;;;;;;;3.67;0.50;;;;;;;7.41;100.00;99483.59;5121994;27;20044;-36
2024/01/04 00:09:54;;;;;;;2.43;0.73;;;;;;;7.45;100.00;99495.50;5117052;28;20455;-36
2024/01/04 00:12:19;;;;;;;3.00;0.70;;;;;;;7.41;100.00;99499.72;5117653;28;20405;-35
2024/01/04 00:14:44;;;;;;;1.87;0.50;;;;;;;7.44;100.00;99511.91;5116848;28;20023;-36
2024/01/04 00:17:10;;;;;;;1.80;0.83;;;;;;;7.38;100.00;99511.00;5117428;27;20567;-36
2024/01/04 00:19:35;;;;;;;2.90;0.90;;;;;;;7.41;100.00;99520.44;5116884;28;20038;-36
2024/01/04 00:22:00;;;;;;;4.07;1.23;;;;;;;7.45;100.00;99529.66;5117088;27;20024;-36
2024/01/04 00:24:26;;;;;;;3.20;1.20;;;;;;;7.44;100.00;99528.84;5117255;28;20027;-36
2024/01/04 00:26:51;;;;;;;3.40;0.93;;;;;;;7.43;100.00;99535.28;5117021;28;20035;-35
2024/01/04 00:29:16;;;;;;;2.30;1.00;;;;;;;7.46;100.00;99544.72;5116644;28;20026;-36
2024/01/04 00:31:42;;;;;;;3.87;1.40;;;;;;;7.45;100.00;99543.09;5116398;28;20024;-36
2024/01/04 00:34:08;;;;;;;3.65;1.38;;;;;;;7.38;100.00;99545.97;5116286;28;20160;-36
2024/01/04 00:36:34;;;;;;;6.07;1.52;;;;;;;7.45;100.00;99562.75;5116433;28;20113;-36
2024/01/04 00:38:59;;;;;;;4.38;1.35;;;;;;;7.45;100.00;99560.06;5116655;28;20020;-36
2024/01/04 00:41:25;;;;;;;3.65;1.17;;;;;;;7.47;100.00;99566.03;5116777;28;20027;-36
2024/01/04 00:43:50;;;;;;;9.25;1.35;;;;;;;7.45;100.00;99572.69;5116646;27;20024;-36
2024/01/04 00:46:16;;;;;;;6.23;1.27;;;;;;;7.47;100.00;99601.00;5116877;28;20024;-36
2024/01/04 00:48:41;;;;;;;3.63;0.80;;;;;;;7.44;100.00;99588.03;5115045;28;20024;-36
2024/01/04 00:51:06;;;;;;;5.17;1.37;;;;;;;7.42;100.00;99602.78;5116608;28;20012;-36
2024/01/04 00:53:32;;;;;;;3.88;1.00;;;;;;;7.37;100.00;99594.59;5115868;28;20055;-36
2024/01/04 00:55:57;;;;;;;2.65;1.20;;;;;;;7.41;100.00;99601.13;5116586;28;20040;-36
2024/01/04 00:58:23;;;;;;;4.50;1.27;;;;;;;7.32;100.00;99595.34;5115826;28;20020;-36
2024/01/04 01:00:48;;;;;;;5.40;1.50;;;;;;;7.42;100.00;99611.66;5116112;28;20024;-36
2024/01/04 01:03:13;;;;;;;5.83;1.80;;;;;;;7.42;100.00;99627.78;5116000;28;20026;-36
2024/01/04 01:05:39;;;;;;;4.53;1.37;;;;;;;7.42;100.00;99629.69;5116217;28;20015;-36
2024/01/04 01:08:05;;;;;;;5.85;1.52;;;;;;;7.43;100.00;99636.69;5115612;28;20047;-36
2024/01/04 01:10:32;;;;;;;3.38;1.23;;;;;;;7.34;100.00;99630.84;5116464;28;20459;-36
2024/01/04 01:12:57;;;;;;;5.03;1.27;;;;;;;7.38;100.00;99640.09;5115832;28;20023;-36
2024/01/04 01:15:22;;;;;;;7.15;1.38;;;;;;;7.39;100.00;99632.84;5115690;28;20026;-36
2024/01/04 01:17:48;;;;;;;2.93;1.10;;;;;;;7.44;100.00;99646.38;5115555;28;20106;-36
2024/01/04 01:20:13;;;;;;;4.53;1.30;;;;;;;7.44;100.00;99655.25;5114586;28;20291;-36
2024/01/04 01:22:39;;;;;;;6.97;1.30;;;;;;;7.44;100.00;99649.88;5115679;28;20254;-36
2024/01/04 01:25:04;;;;;;;4.13;1.23;;;;;;;7.46;100.00;99658.50;5115284;28;20109;-36
2024/01/04 01:27:30;;;;;;;7.28;1.98;;;;;;;7.44;100.00;99651.75;5115197;28;20091;-36
2024/01/04 01:29:55;;;;;;;4.73;1.27;;;;;;;7.43;100.00;99652.81;5115765;28;20020;-36
2024/01/04 01:32:20;;;;;;;7.07;1.73;;;;;;;7.43;100.00;99666.25;5115536;28;20020;-36
2024/01/04 01:34:46;;;;;;;4.83;1.37;;;;;;;7.43;100.00;99663.56;5115929;28;20030;-35
2024/01/04 01:37:11;;;;;;;5.40;1.27;;;;;;;7.44;100.00;99682.16;5115157;28;20026;-36
2024/01/04 01:39:36;;;;;;;8.55;1.70;;;;;;;7.43;100.00;99679.72;5115272;28;20023;-36
2024/01/04 01:42:02;;;;;;;6.50;2.17;;;;;;;7.35;100.00;99677.38;5115852;27;20463;-36
2024/01/04 01:44:28;;;;;;;4.80;1.45;;;;;;;7.44;100.00;99687.53;5115451;28;20020;-36
2024/01/04 01:46:53;;;;;;;5.67;1.60;;;;;;;7.45;100.00;99691.84;5115219;28;20367;-36
2024/01/04 01:49:18;;;;;;;4.30;1.20;;;;;;;7.47;100.00;99697.03;5115099;28;20023;-36
2024/01/04 01:51:44;;;;;;;9.77;2.17;;;;;;;7.34;100.00;99681.16;5115614;28;20024;-36
2024/01/04 01:54:10;;;;;;;6.28;2.03;;;;;;;7.47;100.00;99713.16;5114947;28;20015;-36
2024/01/04 01:56:35;;;;;;;;;;;;;;;7.55;100.00;99730.78;5115593;28;20039;-36
2024/01/04 01:59:01;;;;;;;8.53;2.30;;;;;;;7.52;100.00;99725.91;5115472;28;19964;-36
2024/01/04 02:01:27;;;;;;;5.88;1.95;;;;;;;7.45;100.00;99716.06;5114860;28;20265;-36
2024/01/04 02:03:54;;;;;;;6.45;2.00;;;;;;;7.52;100.00;99725.91;5114461;28;20019;-36
2024/01/04 02:06:19;;;;;;;7.00;2.00;;;;;;;7.43;100.00;99720.88;5115308;28;20046;-36
2024/01/04 02:08:46;;;;;;;5.88;2.13;;;;;;;7.52;100.00;99736.66;5114675;28;20015;-36
2024/01/04 02:11:11;;;;;;;8.38;2.40;;;;;;;7.53;100.00;99733.72;5115471;28;20440;-36
2024/01/04 02:13:37;;;;;;;6.88;2.13;;;;;;;7.52;100.00;99736.66;5114573;28;20028;-36
2024/01/04 02:16:02;;;;;;;4.85;2.10;;;;;;;7.55;100.00;99749.63;5114511;28;20213;-35
2024/01/04 02:18:28;;;;;;;8.35;2.63;;;;;;;7.55;100.00;99752.31;5114547;28;20054;-36
2024/01/04 02:20:53;;;;;;;12.50;2.60;;;;;;;7.55;100.00;99760.38;5114605;28;20023;-35
2024/01/04 02:23:19;;;;;;;10.90;2.93;;;;;;;7.54;100.00;99756.88;5114470;28;20601;-36
2024/01/04 02:25:44;;;;;;;7.63;2.10;;;;;;;7.45;100.00;99753.72;5114686;28;20106;-36
2024/01/04 02:28:09;;;;;;;7.10;2.57;;;;;;;7.54;100.00;99775.69;5115222;28;20455;-36
2024/01/04 02:30:35;;;;;;;8.45;2.22;;;;;;;7.56;100.00;99770.88;5114166;28;20016;-36
2024/01/04 02:33:00;;;;;;;5.23;2.37;;;;;;;7.55;100.00;99779.22;5114137;28;20024;-36
2024/01/04 02:35:26;;;;;;;13.40;3.30;;;;;;;7.55;100.00;99776.50;5114171;28;20020;-36
2024/01/04 02:37:52;;;;;;;7.70;2.10;;;;;;;7.54;100.00;99783.78;5114810;28;20288;-36
2024/01/04 02:40:18;;;;;;;6.45;2.15;;;;;;;7.55;100.00;99784.59;5114734;28;20072;-36
2024/01/04 02:42:43;;;;;;;9.55;2.38;;;;;;;7.55;100.00;99784.59;5114792;28;20389;-36
2024/01/04 02:45:09;;;;;;;9.10;2.47;;;;;;;7.55;100.00;99789.97;5114120;28;20107;-36
2024/01/04 02:47:34;;;;;;;6.32;2.20;;;;;;;7.46;100.00;99773.38;5114931;28;20023;-36
2024/01/04 02:50:00;;;;;;;6.82;2.60;;;;;;;7.45;100.00;99772.56;5114042;28;20019;-36
2024/01/04 02:52:25;;;;;;;6.18;2.15;;;;;;;7.54;100.00;99791.03;5114079;28;20016;-36
2024/01/04 02:54:50;;;;;;;10.17;2.57;;;;;;;7.51;100.00;99792.31;5114403;28;20023;-36
2024/01/04 02:57:16;;;;;;;9.80;2.73;;;;;;;7.49;100.00;99792.53;5114382;28;20023;-36
2024/01/04 02:59:41;;;;;;;6.50;2.20;;;;;;;7.44;100.00;99781.69;5113751;28;20034;-36
2024/01/04 03:02:06;;;;;;;6.83;2.10;;;;;;;7.51;100.00;99799.56;5114041;28;20340;-36
2024/01/04 03:04:32;;;;;;;8.23;2.80;;;;;;;7.45;100.00;99791.38;5114260;28;20019;-36
2024/01/04 03:06:57;;;;;;;6.67;2.13;;;;;;;7.41;100.00;99787.53;5114256;28;20744;-36
2024/01/04 03:09:22;;;;;;;5.38;1.83;;;;;;;7.49;100.00;99806.00;5113901;28;20444;-35
2024/01/04 03:11:48;;;;;;;6.70;2.10;;;;;;;7.49;100.00;99794.44;5114017;28;20106;-36
2024/01/04 03:14:13;;;;;;;7.97;2.40;;;;;;;7.48;100.00;99806.25;5113903;28;20103;-36
2024/01/04 03:16:38;;;;;;;8.20;2.13;;;;;;;7.51;100.00;99826.47;5113373;28;20023;-36
2024/01/04 03:19:04;;;;;;;6.97;2.17;;;;;;;7.43;100.00;99798.88;5113566;28;20031;-36
2024/01/04 03:21:29;;;;;;;4.60;1.60;;;;;;;7.49;100.00;99814.06;5114140;28;20022;-36
2024/01/04 03:23:55;;;;;;;8.10;2.17;;;;;;;7.49;100.00;99827.53;5113518;28;20475;-36
2024/01/04 03:26:20;;;;;;;8.05;2.63;;;;;;;7.43;100.00;99823.09;5113824;28;20023;-36
2024/01/04 03:28:45;;;;;;;4.70;1.53;;;;;;;7.51;100.00;99835.34;5113422;28;20145;-36
2024/01/04 03:31:10;;;;;;;5.47;1.67;;;;;;;7.55;100.00;99849.97;5114593;28;20103;-36
2024/01/04 03:33:36;;;;;;;4.87;2.07;;;;;;;7.56;100.00;99846.22;5113671;28;20208;-36
2024/01/04 03:36:01;;;;;;;5.03;2.00;;;;;;;7.49;100.00;99843.66;5113852;28;20016;-36
2024/01/04 03:38:26;;;;;;;5.23;1.83;;;;;;;7.56;100.00;99862.34;5113882;28;20496;-36
2024/01/04 03:40:52;;;;;;;5.07;1.83;;;;;;;7.55;100.00;99855.34;5114403;28;20249;-36
2024/01/04 03:43:17;;;;;;;5.00;2.30;;;;;;;7.57;100.00;99855.94;5116562;28;20019;-36
2024/01/04 03:45:43;;;;;;;7.57;2.17;;;;;;;7.57;100.00;99857.81;5117740;28;20503;-36
2024/01/04 03:48:08;;;;;;;6.30;2.33;;;;;;;7.46;100.00;99852.19;5117416;28;20024;-36
2024/01/04 03:50:33;;;;;;;4.83;2.67;;;;;;;7.54;100.00;99866.34;5117122;28;20045;-36
2024/01/04 03:52:59;;;;;;;9.67;2.90;;;;;;;7.47;100.00;99859.22;5115980;28;20028;-36
2024/01/04 03:55:24;;;;;;;7.77;2.97;;;;;;;7.54;100.00;99869.03;5117045;28;20101;-36
2024/01/04 03:57:50;;;;;;;5.90;2.13;;;;;;;7.51;100.00;99864.13;5117328;27;20028;-36
2024/01/04 04:00:16;;;;;;;6.82;2.58;;;;;;;7.41;100.00;99854.75;5117136;28;20026;-36
2024/01/04 04:02:41;;;;;;;;;;;;;;;7.53;100.00;99876.31;5117601;28;20084;-36
2024/01/04 04:05:07;;;;;;;5.88;2.30;;;;;;;7.48;100.00;99876.19;5117313;28;19908;-36
2024/01/04 04:07:32;;;;;;;5.88;2.38;;;;;;;7.47;100.00;99883.44;5116821;28;20016;-36
2024/01/04 04:09:58;;;;;;;6.40;2.40;;;;;;;7.46;100.00;99884.47;5117571;27;20019;-36
2024/01/04 04:12:24;;;;;;;5.63;2.78;;;;;;;7.47;100.00;99888.81;5117296;28;20031;-36
2024/01/04 04:14:51;;;;;;;7.22;2.55;;;;;;;7.38;100.00;99873.25;5117112;28;20416;-36
2024/01/04 04:17:18;;;;;;;7.03;2.55;;;;;;;7.45;100.00;99893.59;5117025;28;20038;-36
2024/01/04 04:19:43;;;;;;;6.30;2.53;;;;;;;7.38;100.00;99878.63;5116763;28;20048;-36
2024/01/04 04:22:09;;;;;;;5.20;2.47;;;;;;;7.43;100.00;99894.91;5117143;28;20050;-36
2024/01/04 04:24:34;;;;;;;5.70;2.63;;;;;;;7.42;100.00;99896.78;5117028;28;20020;-36
2024/01/04 04:26:59;;;;;;;7.93;3.00;;;;;;;7.41;100.00;99897.81;5116784;28;20023;-36
2024/01/04 04:29:25;;;;;;;8.03;3.13;;;;;;;7.41;100.00;99908.56;5116852;28;20019;-36
2024/01/04 04:31:50;;;;;;;6.23;3.40;;;;;;;7.40;100.00;99908.81;5116987;28;20401;-36
2024/01/04 04:34:15;;;;;;;5.10;3.10;;;;;;;7.40;100.00;99917.69;5116545;28;20472;-36
2024/01/04 04:36:41;;;;;;;5.27;3.10;;;;;;;7.39;100.00;99915.25;5116717;28;20046;-36
2024/01/04 04:39:08;;;;;;;7.00;2.70;;;;;;;7.36;100.00;99921.88;5116475;28;20023;-36
2024/01/04 04:41:33;;;;;;;5.03;2.30;;;;;;;7.40;100.00;99917.69;5116939;28;20094;-36
2024/01/04 04:43:59;;;;;;;6.83;2.50;;;;;;;7.40;100.00;99927.63;5116662;28;20476;-36
2024/01/04 04:46:24;;;;;;;3.77;2.00;;;;;;;7.28;100.00;99911.50;5116616;28;20417;-36
2024/01/04 04:48:54;;;;;;;6.23;2.63;;;;;;;7.43;100.00;99933.38;5116296;28;20050;-36
2024/01/04 04:51:20;;;;;;;5.75;2.13;;;;;;;7.45;100.00;99941.19;5116240;27;20034;-36
2024/01/04 04:53:46;;;;;;;4.28;1.90;;;;;;;7.42;100.00;99937.13;5116050;28;20043;-35
2024/01/04 04:56:11;;;;;;;5.20;1.80;;;;;;;7.45;100.00;99947.41;5115759;28;20120;-36
2024/01/04 04:58:36;;;;;;;5.37;1.93;;;;;;;7.35;100.00;99932.88;5115805;28;20038;-35
2024/01/04 05:01:02;;;;;;;5.70;1.60;;;;;;;7.44;100.00;99955.72;5116683;28;20055;-36
2024/01/04 05:03:28;;;;;;;5.10;1.80;;;;;;;7.46;100.00;99962.47;5116075;28;20451;-36
2024/01/04 05:05:53;;;;;;;3.70;1.75;;;;;;;7.45;100.00;99960.03;5116524;27;20106;-36
2024/01/04 05:08:19;;;;;;;3.30;1.75;;;;;;;7.43;100.00;99960.28;5115920;28;20428;-36
2024/01/04 05:10:44;;;;;;;5.90;1.53;;;;;;;7.42;100.00;99958.63;5116182;28;20098;-36
2024/01/04 05:13:09;;;;;;;4.90;1.67;;;;;;;7.42;100.00;99972.09;5115757;27;20308;-36
2024/01/04 05:15:35;;;;;;;4.60;1.47;;;;;;;7.40;100.00;99960.72;5115719;28;20059;-36
2024/01/04 05:18:00;;;;;;;5.93;1.40;;;;;;;7.38;100.00;99962.84;5116301;27;20054;-36
2024/01/04 05:20:25;;;;;;;2.80;1.20;;;;;;;7.38;100.00;99965.53;5116273;28;20023;-36
2024/01/04 05:22:50;;;;;;;2.83;1.40;;;;;;;7.37;100.00;99966.59;5116322;28;20062;-36
2024/01/04 05:25:16;;;;;;;2.87;1.10;;;;;;;7.37;100.00;99973.81;5115592;28;20031;-36
2024/01/04 05:27:41;;;;;;;4.15;1.55;;;;;;;7.37;100.00;99977.34;5115568;28;20015;-36
2024/01/04 05:30:08;;;;;;;4.20;1.73;;;;;;;7.31;100.00;99966.66;5115520;28;20026;-36
2024/01/04 05:32:34;;;;;;;3.35;1.42;;;;;;;7.37;100.00;99981.88;5115789;28;20027;-35
2024/01/04 05:34:59;;;;;;;;;;;;;;;7.41;100.00;99991.13;5115380;28;20015;-36
2024/01/04 05:37:25;;;;;;;4.03;1.95;;;;;;;7.38;100.00;99978.16;5116202;28;19908;-36
2024/01/04 05:39:50;;;;;;;3.73;2.07;;;;;;;7.33;100.00;99972.66;5115342;28;20019;-36
2024/01/04 05:42:15;;;;;;;4.80;2.30;;;;;;;7.38;100.00;99984.34;5115861;28;20019;-36
2024/01/04 05:44:41;;;;;;;5.90;2.90;;;;;;;7.38;100.00;99992.44;5114974;27;20020;-36
2024/01/04 05:47:07;;;;;;;6.53;2.80;;;;;;;7.37;100.00;99998.00;5115252;28;20085;-36
2024/01/04 05:49:32;;;;;;;4.95;2.60;;;;;;;7.35;100.00;100003.63;5115608;28;20065;-36
2024/01/04 05:51:58;;;;;;;7.20;2.65;;;;;;;7.19;100.00;99980.91;5115723;28;20390;-36
2024/01/04 05:54:23;;;;;;;4.90;2.47;;;;;;;7.31;100.00;100010.50;5115011;28;20107;-35
2024/01/04 05:56:49;;;;;;;7.25;2.58;;;;;;;7.28;100.00;100005.63;5114440;28;20043;-36
2024/01/04 05:59:14;;;;;;;6.40;2.75;;;;;;;7.31;100.00;100010.50;5114683;28;20028;-36
2024/01/04 06:01:40;;;;;;;6.50;2.38;;;;;;;7.14;100.00;99993.41;5115756;28;20328;-36
2024/01/04 06:04:05;;;;;;;7.45;3.10;;;;;;;7.29;100.00;100012.63;5114782;28;20034;-35
2024/01/04 06:06:31;;;;;;;8.73;2.85;;;;;;;7.27;100.00;100005.81;5114179;28;20053;-36
2024/01/04 06:08:56;;;;;;;6.75;2.97;;;;;;;7.30;100.00;100018.81;5113541;28;20073;-36
2024/01/04 06:11:21;;;;;;;6.47;2.63;;;;;;;7.30;100.00;100019.63;5115394;28;20034;-36
2024/01/04 06:13:47;;;;;;;6.77;2.90;;;;;;;7.27;100.00;100014.75;5114723;28;20024;-36
2024/01/04 06:16:12;;;;;;;6.43;2.97;;;;;;;7.27;100.00;100028.19;5114806;28;20023;-36
2024/01/04 06:18:38;;;;;;;8.95;3.53;;;;;;;7.09;100.00;100015.59;5114849;28;20023;-36
2024/01/04 06:21:05;;;;;;;6.20;2.93;;;;;;;7.25;100.00;100048.28;5114841;28;20031;-36
2024/01/04 06:23:31;;;;;;;6.57;3.08;;;;;;;7.25;100.00;100045.59;5115309;28;20809;-36
2024/01/04 06:25:56;;;;;;;7.85;2.65;;;;;;;7.20;100.00;100048.94;5114233;28;20063;-36
2024/01/04 06:28:23;;;;;;;4.57;2.17;;;;;;;7.19;100.00;100061.59;5114866;28;20027;-36
2024/01/04 06:30:48;;;;;;;;;;;;;;;7.21;100.00;100055.97;5114213;28;20031;-36
2024/01/04 06:33:14;;;;;;;7.50;2.55;;;;;;;7.09;100.00;100055.13;5114356;28;19904;-36
2024/01/04 06:35:40;;;;;;;6.18;2.30;;;;;;;7.13;100.00;100062.50;5114561;28;20367;-36
2024/01/04 06:38:08;;;;;;;5.57;2.22;;;;;;;7.13;100.00;100062.50;5114278;27;20024;-36
2024/01/04 06:40:43;;;;;;;4.88;2.30;;;;;;;7.10;100.00;100070.19;5114038;28;20452;-36
2024/01/04 06:43:08;;;;;;;5.25;2.15;;;;;;;7.03;100.00;100072.13;5114807;28;20015;-36
2024/01/04 06:45:36;;;;;;;6.43;2.13;;;;;;;7.03;100.00;100069.44;5113938;28;20028;-36
2024/01/04 06:48:01;;;;;;;4.20;2.33;;;;;;;7.11;100.00;100087.97;5114793;28;20023;-36
2024/01/04 06:50:26;;;;;;;4.60;2.10;;;;;;;7.12;100.00;100093.09;5114408;28;20444;-36
2024/01/04 06:52:52;;;;;;;3.43;2.30;;;;;;;7.12;100.00;100103.03;5114225;28;20055;-36
2024/01/04 06:55:18;;;;;;;5.30;2.53;;;;;;;7.03;100.00;100083.72;5114079;28;20749;-35
2024/01/04 06:57:43;;;;;;;4.32;2.00;;;;;;;7.10;100.00;100114.03;5114601;28;20451;-35
2024/01/04 07:00:09;;;;;;;4.23;2.23;;;;;;;7.14;100.00;100117.09;5114078;28;20043;-36
2024/01/04 07:02:35;;;;;;;4.53;2.00;;;;;;;7.14;100.00;100127.84;5114012;28;20031;-36
2024/01/04 07:05:03;;;;;;;3.63;1.98;;;;;;;7.12;100.00;100129.91;5114829;28;20074;-36
2024/01/04 07:07:30;;;;;;;4.63;2.05;;;;;;;7.13;100.00;100129.72;5114009;28;20023;-36
2024/01/04 07:09:55;;;;;;;4.07;2.03;;;;;;;7.16;100.00;100139.19;5114474;28;20020;-36
2024/01/04 07:12:20;;;;;;;5.03;2.30;;;;;;;7.16;100.00;100147.25;5114094;28;20034;-36
2024/01/04 07:14:46;;;;;;;7.00;2.20;;;;;;;7.10;100.00;100145.47;5113976;28;20023;-36
2024/01/04 07:17:13;;;;;;;4.78;2.15;;;;;;;7.18;100.00;100155.94;5115109;28;20027;-36
2024/01/04 07:19:41;;;;;;;4.65;2.42;;;;;;;7.17;100.00;100160.50;5117778;28;20428;-35
2024/01/04 07:22:07;;;;;;;5.00;2.38;;;;;;;7.15;100.00;100151.00;5118335;28;20126;-36
2024/01/04 07:24:32;;;;;;;7.30;2.70;;;;;;;7.17;100.00;100154.25;5118804;28;20102;-36
2024/01/04 07:26:58;;;;;;;5.77;3.07;;;;;;;7.14;100.00;100157.41;5118226;28;20278;-36
2024/01/04 07:29:23;;;;;;;2.85;2.08;;;;;;;7.09;100.00;100150.03;5117904;28;20110;-35
2024/01/04 07:31:49;;;;;;;5.97;1.30;;;;;;;7.09;100.00;100168.03;5118226;28;20359;-35
2024/01/04 07:34:14;;;;;;;3.65;1.38;;;;;;;7.07;100.00;100167.41;5117383;28;20065;-36
2024/01/04 07:36:39;;;;;;;1.73;0.90;;;;;;;7.07;100.00;100168.22;5117466;28;20089;-36
2024/01/04 07:39:05;;;;;;;3.80;1.43;;;;;;;7.08;100.00;100169.09;5117736;28;20489;-36
2024/01/04 07:41:30;;;;;;;3.50;1.37;;;;;;;7.01;100.00;100162.94;5117970;28;20477;-36
2024/01/04 07:43:57;;;;;;;3.22;1.60;;;;;;;7.02;100.00;100170.78;5117310;28;20425;-36
2024/01/04 07:46:22;;;;;;;3.42;1.80;;;;;;;7.10;100.00;100175.88;5117847;28;20023;-36
2024/01/04 07:48:47;;;;;;;3.40;1.63;;;;;;;7.05;100.00;100167.66;5117273;28;20379;-36
2024/01/04 07:51:13;;;;;;;4.30;1.70;;;;;;;7.10;100.00;100178.56;5118313;28;20377;-35
2024/01/04 07:53:40;;;;;;;3.70;1.77;;;;;;;7.12;100.00;100189.91;5117456;28;20337;-36
2024/01/04 07:56:05;;;;;;;3.05;1.83;;;;;;;7.13;100.00;100185.38;5117444;28;20023;-36
2024/01/04 07:58:31;;;;;;;4.68;2.10;;;;;;;7.15;100.00;100188.63;5117946;27;20439;-36
2024/01/04 08:00:56;;;;;;;4.75;2.25;;;;;;;7.14;100.00;100182.44;5117020;28;20026;-36
2024/01/04 08:03:21;;;;;;;4.20;2.33;;;;;;;7.16;100.00;100196.47;5117268;28;20023;-36
2024/01/04 08:05:47;;;;;;;4.03;2.67;;;;;;;7.17;100.00;100198.13;5118075;28;20031;-36
2024/01/04 08:08:12;;;;;;;5.27;2.90;;;;;;;7.19;100.00;100205.97;5117182;28;20091;-36
2024/01/04 08:10:37;;;;;;;6.03;3.30;;;;;;;7.18;100.00;100207.84;5117453;28;20152;-35
2024/01/04 08:13:03;;;;;;;5.20;3.10;;;;;;;7.18;100.00;100204.34;5117416;27;20016;-36
2024/01/04 08:15:33;;;;;;;5.28;3.13;;;;;;;7.20;100.00;100202.22;5117448;28;20099;-36
2024/01/04 08:17:58;;;;;;;4.35;2.60;;;;;;;7.20;100.00;100210.28;5117584;28;20039;-36
2024/01/04 08:20:24;;;;;;;6.40;2.83;;;;;;;7.20;100.00;100210.28;5117504;27;20023;-36
2024/01/04 08:22:50;;;;;;;6.50;2.90;;;;;;;7.20;100.00;100210.28;5116880;28;20492;-36
2024/01/04 08:25:15;;;;;;;6.40;2.97;;;;;;;7.23;100.00;100212.56;5116574;28;20027;-36
2024/01/04 08:27:41;;;;;;;6.10;2.80;;;;;;;7.20;100.00;100202.22;5116870;27;20110;-36
2024/01/04 08:30:07;;;;;;;7.32;2.90;;;;;;;7.12;100.00;100189.06;5116697;28;20459;-36
2024/01/04 08:32:32;;;;;;;9.30;3.78;;;;;;;7.26;100.00;100222.84;5116640;28;20069;-36
2024/01/04 08:34:57;;;;;;;5.67;3.00;;;;;;;7.21;100.00;100198.50;5116602;28;20097;-36
2024/01/04 08:37:23;;;;;;;7.47;3.03;;;;;;;7.25;100.00;100209.63;5116884;28;20115;-36
2024/01/04 08:39:49;;;;;;;8.20;3.00;;;;;;;7.27;100.00;100221.81;5116620;28;20059;-36
2024/01/04 08:42:15;;;;;;;9.57;3.13;;;;;;;7.22;100.00;100205.50;5116461;28;20019;-36
2024/01/04 08:44:41;;;;;;;9.35;2.80;;;;;;;7.31;100.00;100231.06;5116391;28;20030;-36
2024/01/04 08:47:06;;;;;;;13.40;4.03;;;;;;;7.33;100.00;100234.34;5116666;28;20073;-36
2024/01/04 08:49:32;;;;;;;9.30;2.90;;;;;;;7.35;100.00;100228.75;5116299;28;20031;-36
2024/01/04 08:51:57;;;;;;;6.00;2.90;;;;;;;7.33;100.00;100228.97;5115138;28;20020;-36
2024/01/04 08:54:23;;;;;;;8.47;3.07;;;;;;;7.33;100.00;100237.06;5116281;28;20257;-36
2024/01/04 08:56:48;;;;;;;8.38;2.40;;;;;;;7.27;100.00;100232.56;5116416;28;20051;-36
2024/01/04 08:59:13;;;;;;;6.20;2.60;;;;;;;7.33;100.00;100250.50;5116517;27;20439;-35
2024/01/04 09:01:39;;;;;;;6.20;2.57;;;;;;;7.36;100.00;100249.22;5116197;28;20295;-35
2024/01/04 09:04:04;;;;;;;5.77;2.23;;;;;;;7.37;100.00;100251.69;5116078;28;20076;-35
2024/01/04 09:06:32;;;;;;;6.50;1.90;;;;;;;7.37;100.00;100251.69;5116631;28;20616;-35
2024/01/04 09:08:59;;;;;;;6.47;2.08;;;;;;;7.37;100.00;100259.78;5115637;28;20110;-35
2024/01/04 09:11:27;;;;;;;3.50;1.52;;;;;;;7.35;100.00;100256.47;5116497;28;20363;-35
2024/01/04 09:13:53;;;;;;;4.50;1.90;;;;;;;7.29;100.00;100243.09;5116377;28;20023;-35
2024/01/04 09:16:18;;;;;;;4.53;1.67;;;;;;;7.37;100.00;100262.47;5115874;28;20027;-35
2024/01/04 09:18:43;;;;;;;4.17;1.77;;;;;;;7.39;100.00;100265.72;5115770;28;20023;-35
2024/01/04 09:21:09;;;;;;;6.20;3.50;;;;;;;7.33;100.00;100255.88;5115520;28;20103;-35
2024/01/04 09:23:34;;;;;;;3.57;1.80;;;;;;;7.43;100.00;100275.00;5115929;28;20028;-35
2024/01/04 09:26:08;;;;;;;3.80;1.20;;;;;;;7.45;100.00;100280.97;5115941;28;20098;-35
2024/01/04 09:28:34;;;;;;;5.13;1.95;;;;;;;7.41;100.00;100266.31;5115591;28;20261;-35
2024/01/04 09:30:59;;;;;;;2.95;1.10;;;;;;;7.42;100.00;100273.38;5116396;28;20024;-35
2024/01/04 09:33:24;;;;;;;1.97;1.00;;;;;;;7.45;100.00;100280.97;5115264;28;20012;-35
2024/01/04 09:35:50;;;;;;;2.40;1.20;;;;;;;7.44;100.00;100284.72;5116192;28;20023;-35
2024/01/04 09:38:15;;;;;;;4.70;1.60;;;;;;;7.39;100.00;100270.28;5115435;28;20027;-35
2024/01/04 09:40:41;;;;;;;4.13;1.90;;;;;;;7.44;100.00;100287.41;5114528;28;20065;-35
2024/01/04 09:43:08;;;;;;;5.37;2.43;;;;;;;7.44;100.00;100290.09;5115948;28;20253;-35
2024/01/04 09:45:37;;;;;;;4.90;2.60;;;;;;;7.42;100.00;100292.19;5115175;28;20268;-35
2024/01/04 09:48:10;;;;;;;5.05;2.63;;;;;;;7.38;100.00;100285.63;5116044;28;20051;-35
2024/01/04 09:50:37;;;;;;;4.32;1.83;;;;;;;7.42;100.00;100308.34;5115138;28;20011;-35
2024/01/04 09:53:04;;;;;;;3.30;1.58;;;;;;;7.41;100.00;100309.34;5115725;28;20038;-35
2024/01/04 09:55:30;;;;;;;3.17;1.17;;;;;;;7.40;100.00;100313.09;5114629;28;20053;-35
2024/01/04 09:57:56;;;;;;;2.13;0.98;;;;;;;7.34;100.00;100316.69;5115546;28;20042;-35
2024/01/04 10:00:22;;;;;;;1.65;0.77;;;;;;;7.34;100.00;100318.56;5115549;28;20023;-35
2024/01/04 10:02:49;;;;;;;3.23;1.10;;;;;;;7.34;100.00;100326.63;5114963;28;20023;-35
2024/01/04 10:05:16;;;;;;;2.53;1.08;;;;;;;7.34;100.00;100330.13;5114779;28;20034;-35
2024/01/04 10:08:00;;;;;;;2.55;1.38;;;;;;;7.36;100.00;100327.22;5114753;28;20110;-35
2024/01/04 10:10:30;;;;;;;0.95;0.50;;;;;;;7.34;100.00;100332.00;5114988;28;20524;-35
2024/01/04 10:12:58;;;;;;;1.73;0.50;;;;;;;7.34;100.00;100332.00;5114481;28;20026;-35
2024/01/04 10:15:23;;;;;;;1.30;0.70;;;;;;;7.32;100.00;100340.31;5114280;28;20062;-35
2024/01/04 10:17:50;;;;;;;6.10;1.30;;;;;;;7.26;100.00;100326.91;5114686;28;20016;-35
2024/01/04 10:20:16;;;;;;;3.92;1.80;;;;;;;7.25;100.00;100327.94;5114477;28;20490;-35
2024/01/04 10:22:42;;;;;;;2.57;1.47;;;;;;;7.29;100.00;100329.97;5114587;28;20055;-35
2024/01/04 10:25:10;;;;;;;2.13;1.35;;;;;;;7.28;100.00;100328.34;5114430;28;20019;-35
2024/01/04 10:27:35;;;;;;;1.42;0.63;;;;;;;7.31;100.00;100329.75;5114180;28;20016;-35
2024/01/04 10:30:05;;;;;;;2.25;0.70;;;;;;;7.39;100.00;100341.06;5114976;28;20027;-35
2024/01/04 10:32:31;;;;;;;3.65;1.23;;;;;;;7.43;100.00;100344.13;5114424;28;20024;-35
2024/01/04 10:35:04;;;;;;;0.60;0.45;;;;;;;7.45;100.00;100348.22;5114903;28;20019;-35
2024/01/04 10:37:29;;;;;;;2.00;0.68;;;;;;;7.46;100.00;100347.16;5114917;28;20035;-35
2024/01/04 10:39:57;;;;;;;1.48;0.60;;;;;;;7.46;100.00;100349.88;5114297;28;20016;-35
2024/01/04 10:42:23;;;;;;;3.45;0.70;;;;;;;7.40;100.00;100340.00;5114437;28;20161;-35
2024/01/04 10:44:55;;;;;;;1.67;0.63;;;;;;;7.49;100.00;100345.91;5114308;28;20057;-35
2024/01/04 10:47:21;;;;;;;1.55;0.77;;;;;;;7.54;100.00;100343.38;5114773;28;20070;-35
2024/01/04 10:49:49;;;;;;;2.10;0.95;;;;;;;7.58;100.00;100349.16;5114746;28;20444;-35
2024/01/04 10:52:16;;;;;;;3.28;1.30;;;;;;;7.61;100.00;100356.75;5114295;28;20027;-35
2024/01/04 10:54:42;;;;;;;3.78;1.30;;;;;;;7.62;100.00;100358.44;5113811;28;20020;-35
2024/01/04 10:57:08;;;;;;;;;;;;;;;7.69;100.00;100351.91;5114603;28;20471;-35
2024/01/04 10:59:34;;;;;;;3.33;1.40;;;;;;;7.64;100.00;100354.44;5113779;28;19943;-35
2024/01/04 11:02:01;;;;;;;2.75;1.20;;;;;;;7.62;100.00;100353.03;5114871;28;20028;-35
2024/01/04 11:04:27;;;;;;;2.92;1.30;;;;;;;7.54;100.00;100354.16;5114064;28;20020;-35
2024/01/04 11:06:53;;;;;;;2.70;1.30;;;;;;;7.59;100.00;100351.59;5114833;28;20031;-35
2024/01/04 11:09:19;;;;;;;3.10;1.25;;;;;;;7.60;100.00;100357.81;5113974;28;20355;-35
2024/01/04 11:11:45;;;;;;;2.30;1.00;;;;;;;7.64;100.00;100362.53;5114156;28;20019;-35
2024/01/04 11:14:10;;;;;;;3.70;1.10;;;;;;;7.67;100.00;100359.41;5113837;28;20451;-35
2024/01/04 11:16:45;;;;;;;3.50;1.43;;;;;;;7.72;100.00;100353.34;5114353;28;20023;-36
2024/01/04 11:19:41;;;;;;;5.40;1.92;;;;;;;7.73;100.00;100342.34;5114184;28;20032;-36
2024/01/04 11:22:09;;;;;;;3.92;1.70;;;;;;;7.84;100.00;100359.59;5114391;28;20032;-36
2024/01/04 11:24:49;;;;;;;2.72;1.58;;;;;;;7.84;100.00;100365.00;5113568;28;20020;-36